Time;durP1;ratioP1;P1;durP2;ratioP2;P2;SDS_P1;SDS_P2;PMS_P1;PMS_P2;Temp;Humidity;BMP_temperature;BMP_pressure;BME280_temperature;BME280_humidity;BME280_pressure;Samples;Min_cycle;Max_cycle;Signal;HPM_P1;HPM_P2
2021/01/20 00:01:37;;;;;;;147.32;48.95;;;-10.90;45.50;;;;;;5080510;28;20017;-90
2021/01/20 00:04:02;;;;;;;138.50;49.30;;;-11.00;45.20;;;;;;5100314;28;20123;-91
2021/01/20 00:06:28;;;;;;;132.38;50.42;;;-11.20;45.00;;;;;;5093791;28;20021;-90
2021/01/20 00:08:53;;;;;;;132.77;43.78;;;-11.30;45.30;;;;;;5085629;28;20029;-86
2021/01/20 00:11:19;;;;;;;155.15;56.22;;;-11.40;45.40;;;;;;5099263;28;20131;-89
2021/01/20 00:13:45;;;;;;;159.68;56.67;;;-11.50;45.40;;;;;;5100441;28;20016;-90
2021/01/20 00:20:10;;;;;;;142.68;46.63;;;-11.70;45.50;;;;;;5096086;28;20062;-90
2021/01/20 00:22:36;;;;;;;152.07;51.25;;;-11.80;45.40;;;;;;5095700;28;20040;-90
2021/01/20 00:25:02;;;;;;;159.57;52.90;;;-11.90;45.30;;;;;;5097917;28;20032;-89
2021/01/20 00:27:28;;;;;;;145.43;49.88;;;-12.00;45.60;;;;;;5098308;28;20017;-90
2021/01/20 00:29:54;;;;;;;168.20;55.65;;;-11.90;45.80;;;;;;5098509;28;20051;-91
2021/01/20 00:32:19;;;;;;;148.50;52.70;;;-12.00;45.70;;;;;;5081537;28;20017;-90
2021/01/20 00:34:45;;;;;;;147.50;49.05;;;-12.00;45.70;;;;;;5099443;28;20052;-90
2021/01/20 00:37:11;;;;;;;143.48;49.65;;;-12.00;45.90;;;;;;5096173;28;20024;-90
2021/01/20 00:39:36;;;;;;;142.02;50.75;;;-12.00;46.00;;;;;;5077329;28;20480;-91
2021/01/20 00:42:02;;;;;;;151.55;52.70;;;-12.00;45.90;;;;;;5091815;28;20082;-91
2021/01/20 00:44:27;;;;;;;121.32;42.88;;;-12.00;45.90;;;;;;5088827;28;20099;-90
2021/01/20 00:46:53;;;;;;;138.73;47.35;;;-12.10;46.00;;;;;;5088343;28;20028;-89
2021/01/20 00:49:19;;;;;;;136.05;50.10;;;-12.10;46.00;;;;;;5089891;28;20025;-90
2021/01/20 00:51:45;;;;;;;137.20;46.40;;;-12.20;46.00;;;;;;5086297;28;20113;-90
2021/01/20 00:54:10;;;;;;;131.07;46.38;;;-12.20;46.10;;;;;;5081236;28;20436;-90
2021/01/20 00:56:36;;;;;;;116.45;45.20;;;-12.20;46.20;;;;;;5060576;28;20128;-90
2021/01/20 00:59:02;;;;;;;147.50;50.00;;;-12.20;46.20;;;;;;5059042;28;20028;-90
2021/01/20 01:01:28;;;;;;;119.28;45.55;;;-12.20;46.20;;;;;;5068185;28;20059;-89
2021/01/20 01:03:54;;;;;;;120.78;43.13;;;-12.30;46.00;;;;;;5090763;28;20024;-89
2021/01/20 01:06:19;;;;;;;122.68;46.72;;;-12.30;46.00;;;;;;5079924;28;20055;-89
2021/01/20 01:08:45;;;;;;;133.95;48.25;;;-12.30;46.30;;;;;;5078023;28;20025;-90
2021/01/20 01:11:11;;;;;;;121.85;41.25;;;-12.30;46.50;;;;;;5064243;28;20117;-90
2021/01/20 01:13:36;;;;;;;117.38;41.95;;;-12.30;46.50;;;;;;5092799;28;20012;-90
2021/01/20 01:16:02;;;;;;;130.90;43.08;;;-12.20;46.50;;;;;;5089296;28;20084;-89
2021/01/20 01:18:28;;;;;;;171.07;53.88;;;-12.20;46.40;;;;;;5084184;28;20047;-90
2021/01/20 01:20:53;;;;;;;137.50;48.08;;;-12.20;46.30;;;;;;5094107;28;20039;-89
2021/01/20 01:23:20;;;;;;;117.47;43.65;;;-12.10;46.30;;;;;;5093345;28;20048;-88
2021/01/20 01:25:46;;;;;;;179.20;55.30;;;-12.10;46.30;;;;;;5083045;28;20029;-90
2021/01/20 01:28:13;;;;;;;141.23;46.50;;;-12.10;46.40;;;;;;5065192;28;20029;-91
2021/01/20 01:30:39;;;;;;;124.00;44.00;;;-12.10;46.30;;;;;;5086066;28;20089;-90
2021/01/20 01:33:05;;;;;;;121.70;42.92;;;-12.10;46.20;;;;;;5079166;28;20376;-90
2021/01/20 01:35:31;;;;;;;120.35;40.85;;;-12.10;46.20;;;;;;5060227;28;20036;-90
2021/01/20 01:37:57;;;;;;;122.50;43.85;;;-12.10;46.20;;;;;;5079418;28;20107;-89
2021/01/20 01:40:23;;;;;;;159.98;49.40;;;-12.10;46.30;;;;;;5080958;28;20036;-90
2021/01/20 01:42:48;;;;;;;116.13;42.22;;;-12.10;46.40;;;;;;5084758;28;20021;-90
2021/01/20 01:45:14;;;;;;;100.40;36.38;;;-12.10;46.50;;;;;;5097828;28;20043;-89
2021/01/20 01:47:40;;;;;;;112.28;39.47;;;-12.00;46.50;;;;;;5081047;28;20096;-90
2021/01/20 01:50:06;;;;;;;123.07;39.90;;;-12.00;46.30;;;;;;5081966;28;20036;-92
2021/01/20 01:52:35;;;;;;;116.45;43.10;;;-12.00;46.30;;;;;;5075959;28;20078;-91
2021/01/20 01:55:01;;;;;;;119.50;41.70;;;-12.00;46.30;;;;;;5057405;28;20052;-90
2021/01/20 01:57:27;;;;;;;98.57;38.45;;;-12.00;46.30;;;;;;5075335;28;20430;-91
2021/01/20 01:59:53;;;;;;;105.97;39.83;;;-12.00;46.40;;;;;;5077230;28;20025;-90
2021/01/20 02:02:18;;;;;;;111.45;38.67;;;-12.00;46.40;;;;;;5075381;28;20085;-91
2021/01/20 02:04:44;;;;;;;117.07;40.13;;;-11.90;46.40;;;;;;5075080;28;20460;-91
2021/01/20 02:07:10;;;;;;;137.48;44.42;;;-11.90;46.30;;;;;;5075328;28;20056;-91
2021/01/20 02:09:36;;;;;;;111.45;37.88;;;-11.90;46.10;;;;;;5075034;28;20025;-91
2021/01/20 02:12:19;;;;;;;106.00;38.00;;;-12.00;45.90;;;;;;5075235;28;20032;-88
2021/01/20 02:14:47;;;;;;;120.93;38.78;;;-12.10;45.80;;;;;;5075249;28;20531;-92
2021/01/20 02:17:16;;;;;;;109.97;40.03;;;-12.20;45.90;;;;;;5057076;28;20031;-92
2021/01/20 02:20:05;;;;;;;105.55;37.65;;;-12.30;46.00;;;;;;5075969;28;20032;-90
2021/01/20 02:22:40;;;;;;;127.55;43.55;;;-12.30;46.30;;;;;;5076167;28;20095;-91
2021/01/20 02:25:17;;;;;;;96.50;35.80;;;-12.20;46.50;;;;;;5096780;28;20059;-90
2021/01/20 02:28:06;;;;;;;115.20;40.17;;;-12.20;46.30;;;;;;5098118;28;20029;-91
2021/01/20 02:30:34;;;;;;;107.45;37.97;;;-12.20;46.30;;;;;;5064365;28;20082;-90
2021/01/20 02:33:01;;;;;;;100.30;35.92;;;-12.20;46.20;;;;;;5075178;28;20028;-91
2021/01/20 02:35:27;;;;;;;112.93;38.13;;;-12.20;46.30;;;;;;5075035;28;20032;-92
2021/01/20 02:37:55;;;;;;;95.13;36.05;;;-12.20;46.10;;;;;;5057162;28;20073;-91
2021/01/20 02:40:21;;;;;;;100.13;36.45;;;-12.30;46.00;;;;;;5058052;28;20033;-91
2021/01/20 02:42:47;;;;;;;106.20;38.58;;;-12.40;46.10;;;;;;5059716;28;20024;-91
2021/01/20 02:45:15;;;;;;;111.38;40.65;;;-12.40;46.10;;;;;;5078642;28;20027;-90
2021/01/20 02:47:42;;;;;;;114.03;41.22;;;-12.50;46.20;;;;;;5076897;28;20024;-91
2021/01/20 02:50:09;;;;;;;112.70;40.40;;;-12.50;46.50;;;;;;5076394;28;20032;-90
2021/01/20 02:52:48;;;;;;;116.22;42.63;;;-12.40;46.70;;;;;;5059081;28;20067;-92
2021/01/20 02:55:17;;;;;;;122.75;42.65;;;-12.40;46.50;;;;;;5075944;28;20123;-92
2021/01/20 02:57:45;;;;;;;133.15;43.03;;;-12.40;46.30;;;;;;5061359;28;20032;-91
2021/01/20 03:00:11;;;;;;;125.30;43.25;;;-12.40;46.40;;;;;;5080242;28;20032;-90
2021/01/20 03:02:39;;;;;;;116.60;44.08;;;-12.40;46.60;;;;;;5079380;28;20086;-90
2021/01/20 03:05:07;;;;;;;125.55;45.05;;;-12.40;46.60;;;;;;5079594;28;20036;-91
2021/01/20 03:07:34;;;;;;;115.75;41.97;;;-12.40;46.60;;;;;;5068453;28;20529;-91
2021/01/20 03:10:01;;;;;;;120.00;41.67;;;-12.40;46.40;;;;;;5051733;28;20020;-91
2021/01/20 03:12:28;;;;;;;126.28;44.88;;;-12.50;46.60;;;;;;5080518;28;20053;-89
2021/01/20 03:14:57;;;;;;;107.05;38.80;;;-12.40;46.80;;;;;;5068340;28;20400;-90
2021/01/20 03:17:24;;;;;;;105.35;39.65;;;-12.40;46.80;;;;;;5065105;28;20032;-90
2021/01/20 03:19:49;;;;;;;122.22;43.65;;;-12.30;46.80;;;;;;5067068;28;20025;-91
2021/01/20 03:22:15;;;;;;;101.53;38.75;;;-12.30;46.80;;;;;;5068940;28;20468;-90
2021/01/20 03:24:41;;;;;;;120.95;44.97;;;-12.20;46.70;;;;;;5065488;28;20060;-91
2021/01/20 03:27:06;;;;;;;114.20;42.85;;;-12.10;46.70;;;;;;5051181;28;20051;-91
2021/01/20 03:29:32;;;;;;;115.57;42.65;;;-12.10;46.80;;;;;;5067407;28;20493;-91
2021/01/20 03:31:58;;;;;;;105.10;38.22;;;-12.00;46.70;;;;;;5071017;28;20021;-92
2021/01/20 03:34:23;;;;;;;117.72;42.13;;;-11.90;46.50;;;;;;5068907;28;20040;-91
2021/01/20 03:36:49;;;;;;;126.75;40.72;;;-12.00;46.20;;;;;;5085624;28;20050;-90
2021/01/20 03:39:15;;;;;;;92.53;35.13;;;-12.10;46.20;;;;;;5080855;28;20092;-91
2021/01/20 03:41:40;;;;;;;105.60;38.33;;;-12.10;46.30;;;;;;5087514;28;20021;-89
2021/01/20 03:44:06;;;;;;;109.38;40.80;;;-12.10;46.30;;;;;;5080023;28;20063;-89
2021/01/20 03:46:32;;;;;;;105.50;40.75;;;-12.20;46.40;;;;;;5069744;28;20028;-90
2021/01/20 03:48:57;;;;;;;109.38;39.42;;;-12.20;46.60;;;;;;5066066;28;20356;-89
2021/01/20 03:51:26;;;;;;;111.72;38.03;;;-12.10;46.80;;;;;;5071203;28;20024;-90
2021/01/20 03:53:52;;;;;;;138.57;41.70;;;-12.10;46.60;;;;;;5066764;28;20439;-91
2021/01/20 03:56:18;;;;;;;113.43;40.00;;;-12.20;46.30;;;;;;5081640;28;20052;-90
2021/01/20 03:58:43;;;;;;;115.47;42.80;;;-12.20;46.40;;;;;;5078736;28;20029;-89
2021/01/20 04:01:09;;;;;;;99.00;37.55;;;-12.30;46.40;;;;;;5078211;28;20029;-90
2021/01/20 04:03:35;;;;;;;92.22;34.55;;;-12.40;46.40;;;;;;5091450;28;20031;-89
2021/01/20 04:06:00;;;;;;;90.97;34.90;;;-12.40;46.70;;;;;;5086200;28;20036;-90
2021/01/20 04:08:26;;;;;;;102.63;37.63;;;-12.50;46.70;;;;;;5078700;28;20840;-89
2021/01/20 04:10:52;;;;;;;106.18;38.25;;;-12.40;46.80;;;;;;5063078;28;20025;-90
2021/01/20 04:13:17;;;;;;;93.43;36.60;;;-12.40;46.90;;;;;;5063422;28;20036;-90
2021/01/20 04:15:43;;;;;;;91.47;33.20;;;-12.40;47.00;;;;;;5079088;28;20032;-90
2021/01/20 04:18:09;;;;;;;111.65;38.95;;;-12.30;47.00;;;;;;5078414;28;20512;-89
2021/01/20 04:20:36;;;;;;;113.65;38.92;;;-12.10;47.10;;;;;;5079894;28;20033;-90
2021/01/20 04:23:01;;;;;;;116.28;38.28;;;-12.10;47.00;;;;;;5079171;28;20141;-90
2021/01/20 04:25:27;;;;;;;115.15;40.42;;;-12.10;46.80;;;;;;5079293;28;20519;-90
2021/01/20 04:27:52;;;;;;;106.68;39.88;;;-12.10;46.80;;;;;;5092095;28;20099;-91
2021/01/20 04:30:19;;;;;;;109.18;40.40;;;-12.00;47.00;;;;;;5095154;28;20036;-90
2021/01/20 04:32:44;;;;;;;121.57;42.17;;;-12.00;47.00;;;;;;5085093;28;20448;-91
2021/01/20 04:35:10;;;;;;;134.85;43.78;;;-11.90;47.00;;;;;;5095425;28;20027;-90
2021/01/20 04:37:36;;;;;;;95.82;38.47;;;-11.90;47.00;;;;;;5081551;28;20025;-92
2021/01/20 04:40:04;;;;;;;128.52;43.58;;;-11.80;47.00;;;;;;5082316;28;20201;-91
2021/01/20 04:42:30;;;;;;;128.43;46.95;;;-11.80;46.70;;;;;;5077624;28;20035;-90
2021/01/20 04:44:55;;;;;;;128.88;47.88;;;-11.90;46.50;;;;;;5059333;28;20120;-92
2021/01/20 04:47:21;;;;;;;137.43;49.40;;;-12.00;46.30;;;;;;5076934;28;20032;-91
2021/01/20 04:49:51;;;;;;;140.60;50.15;;;-12.10;46.40;;;;;;5079401;28;20059;-91
2021/01/20 04:52:19;;;;;;;156.38;52.72;;;-12.30;46.50;;;;;;5080451;28;20489;-91
2021/01/20 04:54:46;;;;;;;132.43;46.50;;;-12.30;46.80;;;;;;5082926;28;20050;-91
2021/01/20 04:57:13;;;;;;;116.80;45.00;;;-12.30;46.80;;;;;;5080659;28;20017;-89
2021/01/20 04:59:41;;;;;;;109.93;41.80;;;-12.40;46.70;;;;;;5095818;28;20029;-91
2021/01/20 05:02:09;;;;;;;98.00;35.45;;;-12.50;46.70;;;;;;5078633;28;20029;-92
2021/01/20 05:04:37;;;;;;;81.18;30.70;;;-12.50;46.80;;;;;;5079279;28;20021;-92
2021/01/20 05:07:03;;;;;;;92.20;32.65;;;-12.60;46.70;;;;;;5078084;28;20103;-92
2021/01/20 05:09:29;;;;;;;78.55;30.77;;;-12.70;46.70;;;;;;5078298;28;20020;-91
2021/01/20 05:11:55;;;;;;;88.43;29.30;;;-12.80;47.00;;;;;;5086887;28;20040;-91
2021/01/20 05:14:20;;;;;;;84.93;31.67;;;-12.80;47.10;;;;;;5079895;28;20032;-91
2021/01/20 05:16:49;;;;;;;88.88;32.47;;;-12.80;47.30;;;;;;5081740;28;20032;-91
2021/01/20 05:19:16;;;;;;;94.68;34.88;;;-12.80;47.30;;;;;;5084087;28;20032;-90
2021/01/20 05:22:04;;;;;;;104.50;38.28;;;-12.80;47.40;;;;;;5097515;28;20017;-91
2021/01/20 05:24:30;;;;;;;98.75;36.95;;;-12.70;47.60;;;;;;5095661;28;20058;-86
2021/01/20 05:26:56;;;;;;;101.93;36.88;;;-12.60;47.60;;;;;;5094180;28;20107;-87
2021/01/20 05:29:22;;;;;;;101.50;35.20;;;-12.60;47.40;;;;;;5089441;28;20032;-91
2021/01/20 05:31:47;;;;;;;104.07;38.17;;;-12.60;47.30;;;;;;5085310;28;20048;-91
2021/01/20 05:34:24;;;;;;;98.10;34.92;;;-12.60;47.10;;;;;;5062548;28;20029;-90
2021/01/20 05:37:01;;;;;;;111.47;38.50;;;-12.60;47.00;;;;;;5059708;28;20469;-93
2021/01/20 05:39:26;;;;;;;79.25;30.85;;;-12.60;46.80;;;;;;5043743;28;20036;-91
2021/01/20 05:42:12;;;;;;;101.15;33.75;;;-12.80;46.60;;;;;;5058385;28;20029;-91
2021/01/20 05:44:39;;;;;;;111.60;38.00;;;-12.90;46.80;;;;;;5058373;28;20048;-91
2021/01/20 05:47:11;;;;;;;86.28;31.98;;;-13.00;46.90;;;;;;5045015;28;20025;-92
2021/01/20 05:49:38;;;;;;;78.13;29.20;;;-13.10;47.00;;;;;;5061463;28;20064;-92
2021/01/20 05:52:15;;;;;;;95.78;33.28;;;-13.10;47.20;;;;;;5063488;28;20112;-92
2021/01/20 05:54:42;;;;;;;99.75;37.63;;;-13.20;47.30;;;;;;5062341;28;20063;-92
2021/01/20 05:57:15;;;;;;;133.88;38.97;;;-13.20;47.20;;;;;;5061394;28;20509;-92
2021/01/20 05:59:42;;;;;;;140.60;46.83;;;-13.20;47.20;;;;;;5039844;28;20028;-92
2021/01/20 06:02:09;;;;;;;116.72;41.22;;;-13.20;47.40;;;;;;5056331;28;20032;-92
2021/01/20 06:04:36;;;;;;;113.03;43.95;;;-13.20;47.50;;;;;;5069800;28;20001;-91
2021/01/20 06:07:06;;;;;;;121.07;42.17;;;-13.10;47.80;;;;;;5052897;28;20029;-91
2021/01/20 06:09:37;;;;;;;107.50;37.25;;;-13.00;47.90;;;;;;5046230;28;20457;-92
2021/01/20 06:12:04;;;;;;;100.07;37.17;;;-12.90;47.80;;;;;;5062435;28;20041;-91
2021/01/20 06:14:30;;;;;;;111.07;40.80;;;-12.80;47.70;;;;;;5058681;28;20021;-92
2021/01/20 06:17:03;;;;;;;101.28;39.05;;;-12.80;47.40;;;;;;5058468;28;20082;-91
2021/01/20 06:19:30;;;;;;;111.03;37.47;;;-12.80;47.10;;;;;;5057155;28;20032;-94
2021/01/20 06:21:59;;;;;;;149.88;49.92;;;-12.80;47.10;;;;;;5058957;28;20025;-90
2021/01/20 06:24:39;;;;;;;110.93;40.38;;;-12.90;47.20;;;;;;5059807;28;20377;-91
2021/01/20 06:27:30;;;;;;;113.22;37.22;;;-12.80;47.40;;;;;;5057666;28;20025;-90
2021/01/20 06:30:27;;;;;;;121.93;44.72;;;-12.70;47.60;;;;;;5057070;28;20048;-91
2021/01/20 06:32:55;;;;;;;67.68;26.25;;;-12.60;47.50;;;;;;5059776;28;20068;-90
2021/01/20 06:35:21;;;;;;;92.15;33.08;;;-12.50;47.30;;;;;;5058241;28;20021;-92
2021/01/20 06:37:50;;;;;;;113.95;35.92;;;-12.50;47.20;;;;;;5058193;28;20500;-92
2021/01/20 06:40:22;;;;;;;118.68;39.55;;;-12.50;47.20;;;;;;5059381;28;20115;-88
2021/01/20 06:42:53;;;;;;;113.93;40.35;;;-12.40;47.30;;;;;;5057524;28;20036;-87
2021/01/20 06:45:23;;;;;;;122.60;41.63;;;-12.40;47.40;;;;;;5040783;28;20033;-88
2021/01/20 06:48:15;;;;;;;132.95;44.72;;;-12.30;47.40;;;;;;5064419;28;20056;-89
2021/01/20 06:51:06;;;;;;;136.18;46.53;;;-12.30;47.30;;;;;;5071408;28;20032;-88
2021/01/20 06:53:31;;;;;;;129.02;47.08;;;-12.30;47.50;;;;;;5058970;28;20079;-88
2021/01/20 06:55:57;;;;;;;148.38;50.08;;;-12.10;47.80;;;;;;5075336;28;20017;-92
2021/01/20 06:58:26;;;;;;;109.18;41.58;;;-11.90;48.60;;;;;;5052730;28;20021;-93
2021/01/20 07:01:01;;;;;;;136.45;47.80;;;-11.80;47.70;;;;;;5077599;28;20021;-93
2021/01/20 07:03:48;;;;;;;134.43;47.95;;;-11.70;47.70;;;;;;5062492;28;20114;-93
2021/01/20 07:06:33;;;;;;;132.65;47.42;;;-11.50;47.90;;;;;;5057012;28;20032;-94
2021/01/20 07:08:59;;;;;;;121.07;43.78;;;-11.30;47.80;;;;;;5045903;28;20028;-93
2021/01/20 07:11:25;;;;;;;140.70;46.30;;;-11.10;47.60;;;;;;5073877;28;20037;-91
2021/01/20 07:13:51;;;;;;;121.43;41.72;;;-11.00;47.50;;;;;;5073697;28;20025;-93
2021/01/20 07:16:18;;;;;;;124.80;45.97;;;-10.80;47.60;;;;;;5063916;28;20037;-93
2021/01/20 07:18:50;;;;;;;144.90;52.67;;;-10.60;47.50;;;;;;5059193;28;20033;-93
2021/01/20 07:21:16;;;;;;;118.82;43.50;;;-10.40;47.50;;;;;;5037264;28;20025;-92
2021/01/20 07:23:42;;;;;;;127.47;46.13;;;-10.20;47.40;;;;;;5076267;28;20013;-92
2021/01/20 07:26:09;;;;;;;127.70;48.28;;;-10.00;47.30;;;;;;5076573;28;20033;-93
2021/01/20 07:28:36;;;;;;;122.43;45.58;;;-9.80;47.10;;;;;;5068871;28;20066;-93
2021/01/20 07:31:12;;;;;;;129.75;47.50;;;-9.70;46.80;;;;;;5076773;28;20092;-92
2021/01/20 07:33:39;;;;;;;137.50;54.17;;;-9.50;46.70;;;;;;5083705;28;20032;-92
2021/01/20 07:36:16;;;;;;;132.32;49.17;;;-9.30;46.60;;;;;;5086436;28;20047;-91
2021/01/20 07:38:47;;;;;;;141.40;51.35;;;-9.10;46.60;;;;;;5080295;28;20017;-92
2021/01/20 07:41:18;;;;;;;139.65;52.28;;;-8.90;46.70;;;;;;5089456;28;20016;-92
2021/01/20 07:43:45;;;;;;;152.88;58.03;;;-8.60;46.50;;;;;;5099488;28;20054;-92
2021/01/20 07:46:24;;;;;;;158.05;58.88;;;-8.30;46.50;;;;;;5095298;28;20044;-93
2021/01/20 07:48:50;;;;;;;145.57;53.03;;;-8.00;46.30;;;;;;5070237;28;20029;-92
2021/01/20 07:51:18;;;;;;;139.98;57.50;;;-7.70;46.00;;;;;;5069459;28;20079;-91
2021/01/20 07:54:03;;;;;;;191.68;72.53;;;-7.50;45.70;;;;;;5058826;28;20080;-92
2021/01/20 07:56:31;;;;;;;183.15;65.95;;;-7.10;45.50;;;;;;5058857;28;20025;-92
2021/01/20 07:59:12;;;;;;;207.52;80.90;;;-6.70;45.40;;;;;;5059170;28;20021;-93
2021/01/20 08:01:38;;;;;;;182.98;72.55;;;-6.30;45.20;;;;;;5059774;28;20060;-93
2021/01/20 08:04:27;;;;;;;179.10;73.88;;;-5.60;45.00;;;;;;5063674;28;20025;-92
2021/01/20 08:06:53;;;;;;;179.07;75.05;;;-5.00;44.90;;;;;;5051205;28;20119;-92
2021/01/20 08:09:20;;;;;;;176.88;75.95;;;-4.20;45.30;;;;;;5049941;28;20131;-92
2021/01/20 08:11:47;;;;;;;182.13;75.28;;;-3.50;45.20;;;;;;5063999;28;20056;-92
2021/01/20 08:14:14;;;;;;;157.70;65.68;;;-2.60;44.90;;;;;;5065385;28;20052;-93
2021/01/20 08:16:40;;;;;;;113.03;53.42;;;-1.80;44.20;;;;;;5068127;28;20368;-93
2021/01/20 08:19:07;;;;;;;142.25;64.82;;;-1.10;43.10;;;;;;5062480;28;20096;-93
2021/01/20 08:21:33;;;;;;;155.95;75.40;;;-0.50;42.40;;;;;;5071526;28;20039;-93
2021/01/20 08:24:05;;;;;;;156.45;74.57;;;0.10;41.40;;;;;;5071246;28;20448;-91
2021/01/20 08:26:31;;;;;;;145.15;68.50;;;0.60;40.70;;;;;;5078123;28;20025;-90
2021/01/20 08:29:15;;;;;;;136.23;62.08;;;1.10;40.70;;;;;;5082921;28;20084;-91
2021/01/20 08:31:42;;;;;;;131.15;63.65;;;1.50;38.70;;;;;;5072547;28;20146;-93
2021/01/20 08:34:16;;;;;;;133.93;66.07;;;1.90;38.80;;;;;;5066798;28;20040;-94
2021/01/20 08:37:03;;;;;;;118.57;57.58;;;2.40;37.70;;;;;;5082495;28;20019;-92
2021/01/20 08:39:31;;;;;;;120.60;56.25;;;2.90;36.80;;;;;;5068085;28;20032;-89
2021/01/20 08:42:29;;;;;;;82.05;41.50;;;3.20;36.60;;;;;;5070374;28;20033;-89
2021/01/20 08:45:11;;;;;;;69.30;35.17;;;3.60;35.10;;;;;;5081977;28;20104;-90
2021/01/20 08:47:59;;;;;;;70.60;33.35;;;3.90;34.30;;;;;;5082246;28;20021;-90
2021/01/20 08:50:40;;;;;;;73.82;35.17;;;3.90;33.40;;;;;;5089625;28;20037;-87
2021/01/20 08:53:10;;;;;;;78.63;39.60;;;3.80;33.10;;;;;;5090527;28;20123;-93
2021/01/20 08:55:51;;;;;;;73.28;37.13;;;3.80;33.30;;;;;;5068321;28;20082;-91
2021/01/20 08:58:26;;;;;;;71.28;34.63;;;4.20;33.40;;;;;;5070058;28;20025;-94
2021/01/20 09:00:58;;;;;;;71.10;35.85;;;4.50;32.50;;;;;;5079807;28;20033;-92
2021/01/20 09:03:26;;;;;;;76.85;38.63;;;4.60;32.00;;;;;;5078481;28;20033;-91
2021/01/20 09:05:53;;;;;;;74.30;38.20;;;4.80;31.80;;;;;;5079632;28;20024;-92
2021/01/20 09:08:20;;;;;;;63.38;33.63;;;4.90;31.60;;;;;;5080201;28;20325;-93
2021/01/20 09:10:47;;;;;;;70.18;35.53;;;5.20;31.20;;;;;;5062198;28;20028;-92
2021/01/20 09:13:13;;;;;;;66.63;32.65;;;5.40;30.90;;;;;;5079840;28;20035;-91
2021/01/20 09:15:39;;;;;;;69.30;36.15;;;5.70;30.10;;;;;;5086024;28;20020;-93
2021/01/20 09:18:08;;;;;;;70.93;37.88;;;5.90;30.00;;;;;;5079928;28;20040;-84
2021/01/20 09:20:35;;;;;;;71.63;37.75;;;6.10;29.70;;;;;;5076386;28;20052;-93
2021/01/20 09:23:05;;;;;;;72.20;37.90;;;6.40;29.80;;;;;;5055048;28;20029;-92
2021/01/20 09:25:31;;;;;;;67.90;35.55;;;6.70;29.40;;;;;;5046915;28;20048;-93
2021/01/20 09:27:57;;;;;;;67.90;36.47;;;7.00;29.20;;;;;;5043850;28;20028;-94
2021/01/20 09:30:23;;;;;;;71.65;39.75;;;7.20;28.90;;;;;;5058202;28;20112;-91
2021/01/20 09:32:49;;;;;;;71.32;38.60;;;7.30;28.50;;;;;;5041259;28;20156;-93
2021/01/20 09:35:16;;;;;;;68.00;37.08;;;7.50;28.40;;;;;;5040330;28;20056;-93
2021/01/20 09:37:43;;;;;;;66.97;37.45;;;7.70;28.10;;;;;;5040435;28;20483;-94
2021/01/20 09:40:10;;;;;;;77.88;39.70;;;7.80;28.00;;;;;;5057375;28;20049;-94
2021/01/20 09:42:37;;;;;;;71.60;38.47;;;8.00;27.90;;;;;;5057237;28;20066;-94
2021/01/20 09:45:05;;;;;;;68.82;37.85;;;8.30;27.60;;;;;;5057412;28;20035;-94
2021/01/20 09:47:31;;;;;;;74.78;40.67;;;8.50;27.20;;;;;;5057109;28;20486;-94
2021/01/20 09:49:57;;;;;;;67.85;36.78;;;8.60;27.10;;;;;;5056638;28;20036;-94
2021/01/20 09:52:26;;;;;;;69.30;40.03;;;8.90;27.10;;;;;;5076038;28;20020;-89
2021/01/20 09:54:53;;;;;;;69.85;36.38;;;9.20;26.80;;;;;;5079004;28;20080;-93
2021/01/20 09:57:19;;;;;;;64.80;37.83;;;9.40;26.50;;;;;;5077598;28;20158;-93
2021/01/20 09:59:45;;;;;;;64.80;37.42;;;9.50;26.30;;;;;;5062088;28;20033;-92
2021/01/20 10:02:11;;;;;;;59.05;33.22;;;9.60;26.10;;;;;;5061206;28;20028;-92
2021/01/20 10:04:36;;;;;;;52.50;33.10;;;9.70;26.00;;;;;;5076575;28;20035;-93
2021/01/20 10:07:05;;;;;;;64.65;36.92;;;9.90;25.80;;;;;;5077117;28;20028;-93
2021/01/20 10:09:33;;;;;;;60.88;36.67;;;10.20;25.50;;;;;;5060057;28;20115;-91
2021/01/20 10:11:59;;;;;;;63.65;37.70;;;10.30;25.50;;;;;;5061392;28;20020;-93
2021/01/20 10:14:25;;;;;;;57.70;34.28;;;10.30;25.20;;;;;;5079277;28;20029;-92
2021/01/20 10:16:52;;;;;;;57.38;31.63;;;10.40;25.10;;;;;;5072044;28;20020;-93
2021/01/20 10:19:18;;;;;;;56.40;32.60;;;10.60;25.10;;;;;;5096901;28;20107;-92
2021/01/20 10:21:45;;;;;;;64.78;37.00;;;10.90;24.90;;;;;;5097483;28;20029;-92
2021/01/20 10:24:11;;;;;;;72.57;40.90;;;11.20;24.90;;;;;;5080462;28;20013;-92
2021/01/20 10:26:37;;;;;;;56.35;31.48;;;11.60;24.90;;;;;;5063610;28;20051;-92
2021/01/20 10:29:04;;;;;;;64.03;35.10;;;12.00;24.70;;;;;;5079094;28;20403;-93
2021/01/20 10:31:32;;;;;;;54.35;31.95;;;12.40;24.50;;;;;;5064868;28;20024;-93
2021/01/20 10:33:59;;;;;;;53.63;32.15;;;12.80;24.30;;;;;;5082107;28;20036;-94
2021/01/20 10:36:25;;;;;;;55.13;33.03;;;13.10;24.10;;;;;;5086823;28;20475;-92
2021/01/20 10:38:51;;;;;;;58.63;35.08;;;13.30;23.90;;;;;;5067668;28;20021;-95
2021/01/20 10:41:21;;;;;;;52.53;32.80;;;13.50;23.70;;;;;;5095239;28;20027;-93
2021/01/20 10:43:48;;;;;;;54.33;32.58;;;13.80;23.50;;;;;;5096569;28;20044;-94
2021/01/20 10:46:15;;;;;;;50.72;31.25;;;14.10;23.40;;;;;;5079614;28;20013;-93
2021/01/20 10:48:41;;;;;;;48.70;32.03;;;14.40;23.30;;;;;;5097742;28;20056;-91
2021/01/20 10:51:07;;;;;;;45.95;28.50;;;14.70;23.20;;;;;;5085515;28;20041;-92
2021/01/20 10:53:33;;;;;;;46.17;30.67;;;14.80;22.90;;;;;;5072248;28;20066;-92
2021/01/20 10:55:59;;;;;;;57.95;36.60;;;14.80;22.70;;;;;;5067416;28;20025;-92
2021/01/20 10:58:24;;;;;;;95.07;52.47;;;14.80;22.60;;;;;;5062993;28;20029;-93
2021/01/20 11:00:51;;;;;;;130.90;68.50;;;14.60;22.40;;;;;;5065996;28;20469;-92
2021/01/20 11:03:17;;;;;;;135.98;70.53;;;14.30;22.40;;;;;;5072994;28;20028;-93
2021/01/20 11:05:43;;;;;;;124.80;66.10;;;13.90;22.40;;;;;;5082038;28;20028;-91
2021/01/20 11:08:09;;;;;;;123.63;64.32;;;13.60;22.50;;;;;;5077336;28;20016;-92
2021/01/20 11:10:37;;;;;;;129.88;67.95;;;13.40;22.60;;;;;;5067670;28;20041;-92
2021/01/20 11:13:07;;;;;;;116.78;62.42;;;13.50;22.60;;;;;;5057206;28;20084;-92
2021/01/20 11:15:37;;;;;;;109.78;61.67;;;13.40;22.60;;;;;;5050652;28;20024;-91
2021/01/20 11:18:04;;;;;;;129.77;65.95;;;13.40;22.60;;;;;;5077960;28;20009;-91
2021/01/20 11:20:31;;;;;;;138.88;69.25;;;13.50;22.70;;;;;;5080038;28;20044;-87
2021/01/20 11:23:26;;;;;;;128.25;64.40;;;13.50;22.50;;;;;;5077478;28;20029;-92
2021/01/20 11:26:07;;;;;;;107.00;57.05;;;13.30;22.40;;;;;;5065470;28;20044;-92
2021/01/20 11:28:34;;;;;;;99.57;53.40;;;13.30;22.60;;;;;;5065734;28;20021;-92
2021/01/20 11:31:00;;;;;;;99.45;53.08;;;13.20;22.70;;;;;;5064604;28;20169;-91
2021/01/20 11:33:27;;;;;;;112.15;59.10;;;13.20;22.70;;;;;;5060197;28;20036;-89
2021/01/20 11:35:52;;;;;;;114.55;60.33;;;13.30;22.60;;;;;;5071822;28;20104;-92
2021/01/20 11:38:18;;;;;;;131.25;63.70;;;13.30;22.50;;;;;;5081000;28;20153;-91
2021/01/20 11:41:05;;;;;;;118.13;62.95;;;13.40;22.50;;;;;;5082585;28;20036;-92
2021/01/20 11:43:31;;;;;;;101.50;53.30;;;13.40;22.20;;;;;;5087165;28;20036;-92
2021/01/20 11:45:59;;;;;;;108.13;57.55;;;13.50;22.50;;;;;;5077878;28;20027;-90
2021/01/20 11:48:25;;;;;;;108.13;56.78;;;13.70;22.50;;;;;;5065819;28;20080;-92
2021/01/20 11:50:57;;;;;;;102.40;55.10;;;13.90;22.50;;;;;;5070442;28;20037;-93
2021/01/20 11:53:31;;;;;;;106.45;53.40;;;14.10;22.40;;;;;;5070780;28;20072;-91
2021/01/20 11:55:57;;;;;;;90.13;46.42;;;14.20;22.80;;;;;;5062293;28;20028;-91
2021/01/20 11:58:29;;;;;;;88.03;49.38;;;14.20;22.40;;;;;;5061129;28;20475;-91
2021/01/20 12:00:56;;;;;;;91.72;48.80;;;14.10;22.20;;;;;;5066970;28;20028;-88
2021/01/20 12:03:23;;;;;;;91.68;49.60;;;14.20;22.30;;;;;;5063158;28;20059;-90
2021/01/20 12:05:53;;;;;;;93.70;51.40;;;14.20;22.00;;;;;;5072947;28;20059;-89
2021/01/20 12:08:19;;;;;;;92.10;49.20;;;14.00;21.90;;;;;;5074848;28;20033;-89
2021/01/20 12:10:45;;;;;;;92.43;51.70;;;13.90;22.10;;;;;;5075710;28;20129;-90
2021/01/20 12:13:11;;;;;;;85.82;47.08;;;13.90;22.20;;;;;;5077953;28;20029;-90
2021/01/20 12:15:38;;;;;;;104.70;56.58;;;14.00;22.20;;;;;;5078556;28;20013;-90
2021/01/20 12:18:05;;;;;;;87.55;47.42;;;14.20;22.30;;;;;;5079490;28;20028;-89
2021/01/20 12:20:31;;;;;;;82.88;45.45;;;14.30;22.80;;;;;;5060789;28;20017;-89
2021/01/20 12:22:57;;;;;;;82.82;46.58;;;14.60;22.20;;;;;;5078091;28;20059;-90
2021/01/20 12:25:23;;;;;;;83.28;45.88;;;14.80;22.10;;;;;;5078199;28;20009;-89
2021/01/20 12:27:49;;;;;;;87.10;48.95;;;14.80;21.90;;;;;;5078120;28;20089;-89